Braddock, New Jersey
Current Conditions -  °F | °C
As of 10:54 AM on Thursday 23 Oct 2014 (Local Time) from KACY Reporting Station
Overcast Overcast  
Wind Chill: 11°   Ceiling: 1400
Heat Index: 11°   Visibility: 10mi
Dew Point:   Wind: 18mph
Humidity: 89%   Direction: 310°NW
Pressure: 29.73"   Gusts: NA
Location:  39.637°N, 74.7602°W
Report Text: KACY 231454Z 31016KT 10SM OVC014 11/09 A2973 RMK AO2 RAB30E51 SLP068 P0000 60000 T01060089 51006
Loading
Personal Weather Stations






























Interactive Weather Map
Tropical Storm Tracking
New forecast layout! Learn more

10-Day Weather Forecast

Advertisements
Track Severe Weather on mobile